Observations for MILANO MALPENSA, Italy (LIMC)

LIMC 191950Z 12008KT 9999 OVC035 16/16 Q1015 NOSIG  
LIMC 191920Z 12007KT 090V150 9999 -RA SCT020 BKN035 16/16 Q1015 RERA NOSIG  
LIMC 191850Z 11006KT 070V140 9999 -RA SCT020 BKN032 16/16 Q1015 RERA NOSIG  
LIMC 191820Z 11007KT 9999 RA BKN030 16/16 Q1015 NOSIG   
LIMC 191750Z 11007KT 9999 BKN030 16/16 Q1015 NOSIG  
LIMC 191720Z 12008KT 9999 BKN030 16/16 Q1015 NOSIG  
LIMC 191650Z 12008KT 090V160 9999 BKN025 16/16 Q1015 NOSIG  
LIMC 191620Z 12008KT 7000 SCT020 BKN030 16/16 Q1015 NOSIG   
LIMC 191550Z 13006KT 4000 BR SCT020 BKN045 16/16 Q1015 NOSIG
LIMC 191520Z 12005KT 090V150 4000 BR BKN035 16/16 Q1015 NOSIG   
LIMC 191450Z 10005KT 3500 BR BKN007 OVC018 15/15 Q1014 RERA NOSIG   
LIMC 191420Z 10006KT 2500 RA BR BKN007 BKN015 OVC035 15/15 Q1015 NOSIG  
LIMC 191350Z 11009KT 2500 RA BR BKN007 BKN015 OVC035 15/15 Q1015 NOSIG  
LIMC 191320Z 13008KT 2100 RA BR BKN005 BKN015 OVC035 15/15 Q1015 NOSIG  
LIMC 191250Z 13008KT 2000 RA BR BKN003 OVC006 15/15 Q1015 NOSIG 
LIMC 191220Z 12005KT 100V160 2000 -RADZ BR BKN003 OVC006 15/15 Q1015 REDZ NOSIG 
LIMC 191150Z 11007KT 2000 -RA BR BKN005 OVC020 15/15 Q1015 NOSIG
LIMC 191120Z 12007KT 2000 -RA BR BKN005 OVC020 15/15 Q1015 NOSIG
LIMC 191050Z 13007KT 1500 DZ BR BKN003 OVC010 15/15 Q1015 NOSIG 
LIMC 191020Z 12008KT 1500 DZ BR BKN003 OVC010 15/15 Q1015 NOSIG 
LIMC 190950Z 11008KT 1500 DZ BR BKN003 OVC010 15/15 Q1015 NOSIG 
LIMC 190920Z 12007KT 1500 DZ BR BKN003 OVC010 15/15 Q1015 NOSIG 
LIMC 190850Z 13007KT 1500 -RA BR BKN003 OVC010 14/14 Q1015 NOSIG
LIMC 190820Z 13011KT 1500 -RA BR BKN003 OVC010 14/14 Q1015 NOSIG
LIMC 190750Z 12008KT 1500 -RA BR BKN003 OVC012 15/15 Q1015 NOSIG
LIMC 190720Z 12008KT 3000 -DZ BR BKN005 OVC015 14/14 Q1015 NOSIG
LIMC 190650Z 10004KT 060V130 3000 -DZ BR BKN005 OVC012 14/14 Q1015 NOSIG
LIMC 190620Z 08003KT 4000 -DZ BR BKN005 OVC015 14/14 Q1015 NOSIG
LIMC 190550Z 09005KT 4000 -RA BR BKN005 OVC015 14/14 Q1014 NOSIG
LIMC 190520Z VRB01KT 4000 -RA BR BKN005 OVC015 14/14 Q1015 NOSIG
LIMC 190450Z 10004KT 4000 BR BKN005 OVC020 14/14 Q1015 NOSIG
LIMC 190420Z 06004KT 4000 BR BKN005 OVC020 14/14 Q1015 NOSIG
LIMC 190350Z 10004KT 2000 -DZ BR BKN005 14/14 Q1015 NOSIG   
LIMC 190320Z 11004KT 2000 -DZ BR BKN005 14/14 Q1015 NOSIG   
LIMC 190250Z 12005KT 2000 BR OVC005 14/14 Q1015 NOSIG   
LIMC 190220Z 09004KT 2000 -RA BR BKN010 OVC050 14/14 Q1015 NOSIG
LIMC 190150Z VRB02KT 2000 -RA BR BKN010 OVC050 14/14 Q1015 NOSIG
LIMC 190120Z VRB02KT 2000 -RA BR BKN010 OVC050 15/15 Q1016 NOSIG
LIMC 190050Z 07002KT 2000 -RA BR BKN010 OVC050 15/15 Q1016 NOSIG
LIMC 190020Z 10003KT 2000 BR BKN010 BKN050 15/15 Q1016 NOSIG
LIMC 182350Z 07002KT 2000 BR BKN010 BKN050 15/15 Q1016 NOSIG
LIMC 182320Z 06001KT 2000 -RA BR BKN010 BKN050 15/15 Q1016 NOSIG
LIMC 182250Z VRB02KT 2000 -RA BR BKN010 BKN050 15/15 Q1016 NOSIG
LIMC 182220Z 13003KT 4000 -RA BR BKN010 BKN050 15/15 Q1017 RERA NOSIG   
LIMC 182150Z 14002KT 4000 RA BR BKN010 15/15 Q1017 NOSIG
LIMC 182120Z VRB02KT 4000 RA BR BKN010 15/15 Q1017 NOSIG
LIMC 182050Z 15003KT 090V210 6000 RA BKN010 15/15 Q1017 NOSIG   
LIMC 182020Z VRB02KT 8000 SCT010 BKN060 15/15 Q1017 NOSIG   
LIMC 181950Z VRB02KT 8000 SCT010 BKN060 15/15 Q1017 NOSIG   
LIMC 181920Z 13004KT 100V180 9999 SCT010 BKN050 15/15 Q1017 NOSIG